sensor_id;sensor_type;location;lat;lon;timestamp;temperature;humidity
66035;HTU21D;52805;51.074;5.842;2022-12-18T00:01:03;-3.25;73.36
66035;HTU21D;52805;51.074;5.842;2022-12-18T00:03:35;-3.24;73.23
66035;HTU21D;52805;51.074;5.842;2022-12-18T00:06:01;-3.26;73.19
66035;HTU21D;52805;51.074;5.842;2022-12-18T00:08:28;-3.30;73.38
66035;HTU21D;52805;51.074;5.842;2022-12-18T00:10:54;-3.31;73.41
66035;HTU21D;52805;51.074;5.842;2022-12-18T00:13:20;-3.34;73.51
66035;HTU21D;52805;51.074;5.842;2022-12-18T00:15:45;-3.33;73.56
66035;HTU21D;52805;51.074;5.842;2022-12-18T00:18:11;-3.34;73.59
66035;HTU21D;52805;51.074;5.842;2022-12-18T00:20:39;-3.34;73.67
66035;HTU21D;52805;51.074;5.842;2022-12-18T00:23:06;-3.33;73.69
66035;HTU21D;52805;51.074;5.842;2022-12-18T00:25:33;-3.34;73.44
66035;HTU21D;52805;51.074;5.842;2022-12-18T00:28:00;-3.38;73.44
66035;HTU21D;52805;51.074;5.842;2022-12-18T00:30:26;-3.45;73.58
66035;HTU21D;52805;51.074;5.842;2022-12-18T00:32:52;-3.46;73.64
66035;HTU21D;52805;51.074;5.842;2022-12-18T00:35:17;-3.42;73.63
66035;HTU21D;52805;51.074;5.842;2022-12-18T00:37:43;-3.41;73.38
66035;HTU21D;52805;51.074;5.842;2022-12-18T00:40:11;-3.45;73.22
66035;HTU21D;52805;51.074;5.842;2022-12-18T00:42:37;-3.48;73.19
66035;HTU21D;52805;51.074;5.842;2022-12-18T00:45:30;-3.50;73.23
66035;HTU21D;52805;51.074;5.842;2022-12-18T00:47:57;-3.54;73.20
66035;HTU21D;52805;51.074;5.842;2022-12-18T00:50:24;-3.57;73.38
66035;HTU21D;52805;51.074;5.842;2022-12-18T00:52:51;-3.57;73.56
66035;HTU21D;52805;51.074;5.842;2022-12-18T00:55:17;-3.57;73.73
66035;HTU21D;52805;51.074;5.842;2022-12-18T00:57:45;-3.58;73.79
66035;HTU21D;52805;51.074;5.842;2022-12-18T01:00:13;-3.56;73.80
66035;HTU21D;52805;51.074;5.842;2022-12-18T01:02:41;-3.55;73.74
66035;HTU21D;52805;51.074;5.842;2022-12-18T01:05:08;-3.55;73.70
66035;HTU21D;52805;51.074;5.842;2022-12-18T01:07:33;-3.55;73.60
66035;HTU21D;52805;51.074;5.842;2022-12-18T01:10:02;-3.58;73.51
66035;HTU21D;52805;51.074;5.842;2022-12-18T01:12:28;-3.58;73.46
66035;HTU21D;52805;51.074;5.842;2022-12-18T01:14:54;-3.61;73.35
66035;HTU21D;52805;51.074;5.842;2022-12-18T01:17:20;-3.62;73.41
66035;HTU21D;52805;51.074;5.842;2022-12-18T01:19:45;-3.64;73.42
66035;HTU21D;52805;51.074;5.842;2022-12-18T01:22:11;-3.64;73.58
66035;HTU21D;52805;51.074;5.842;2022-12-18T01:24:37;-3.62;73.67
66035;HTU21D;52805;51.074;5.842;2022-12-18T01:27:02;-3.61;73.68
66035;HTU21D;52805;51.074;5.842;2022-12-18T01:29:28;-3.61;73.48
66035;HTU21D;52805;51.074;5.842;2022-12-18T01:31:57;-3.61;73.39
66035;HTU21D;52805;51.074;5.842;2022-12-18T01:34:23;-3.63;73.38
66035;HTU21D;52805;51.074;5.842;2022-12-18T01:36:50;-3.63;73.21
66035;HTU21D;52805;51.074;5.842;2022-12-18T01:39:19;-3.67;73.27
66035;HTU21D;52805;51.074;5.842;2022-12-18T01:41:45;-3.68;73.33
66035;HTU21D;52805;51.074;5.842;2022-12-18T01:47:48;-3.69;73.38
66035;HTU21D;52805;51.074;5.842;2022-12-18T01:50:23;-3.69;73.28
66035;HTU21D;52805;51.074;5.842;2022-12-18T01:52:52;-3.70;73.26
66035;HTU21D;52805;51.074;5.842;2022-12-18T01:55:22;-3.75;73.32
66035;HTU21D;52805;51.074;5.842;2022-12-18T01:57:53;-3.77;73.32
66035;HTU21D;52805;51.074;5.842;2022-12-18T02:00:21;-3.77;73.14
66035;HTU21D;52805;51.074;5.842;2022-12-18T02:02:48;-3.78;72.95
66035;HTU21D;52805;51.074;5.842;2022-12-18T02:08:15;-3.85;72.82
66035;HTU21D;52805;51.074;5.842;2022-12-18T02:13:31;-3.89;72.89
66035;HTU21D;52805;51.074;5.842;2022-12-18T02:16:24;-3.90;72.85
66035;HTU21D;52805;51.074;5.842;2022-12-18T02:18:59;-3.92;72.60
66035;HTU21D;52805;51.074;5.842;2022-12-18T02:26:56;-3.99;72.73
66035;HTU21D;52805;51.074;5.842;2022-12-18T02:29:32;-4.01;72.80
66035;HTU21D;52805;51.074;5.842;2022-12-18T02:32:03;-4.01;72.96
66035;HTU21D;52805;51.074;5.842;2022-12-18T02:34:37;-4.00;72.99
66035;HTU21D;52805;51.074;5.842;2022-12-18T02:37:09;-4.00;72.96
66035;HTU21D;52805;51.074;5.842;2022-12-18T02:39:40;-4.00;72.83
66035;HTU21D;52805;51.074;5.842;2022-12-18T02:42:11;-4.01;72.83
66035;HTU21D;52805;51.074;5.842;2022-12-18T02:44:48;-3.99;72.68
66035;HTU21D;52805;51.074;5.842;2022-12-18T02:47:21;-3.98;72.59
66035;HTU21D;52805;51.074;5.842;2022-12-18T03:03:25;-4.08;72.74
66035;HTU21D;52805;51.074;5.842;2022-12-18T03:05:59;-4.08;72.76
66035;HTU21D;52805;51.074;5.842;2022-12-18T03:08:31;-4.08;72.80
66035;HTU21D;52805;51.074;5.842;2022-12-18T03:11:03;-4.10;72.81
66035;HTU21D;52805;51.074;5.842;2022-12-18T03:13:40;-4.09;72.94
66035;HTU21D;52805;51.074;5.842;2022-12-18T03:16:15;-4.09;72.94
66035;HTU21D;52805;51.074;5.842;2022-12-18T03:18:57;-4.08;72.85
66035;HTU21D;52805;51.074;5.842;2022-12-18T03:21:40;-4.09;72.87
66035;HTU21D;52805;51.074;5.842;2022-12-18T03:24:10;-4.09;72.86
66035;HTU21D;52805;51.074;5.842;2022-12-18T03:26:42;-4.09;72.91
66035;HTU21D;52805;51.074;5.842;2022-12-18T03:29:19;-4.08;73.02
66035;HTU21D;52805;51.074;5.842;2022-12-18T03:31:53;-4.08;72.97
66035;HTU21D;52805;51.074;5.842;2022-12-18T03:34:26;-4.06;73.06
66035;HTU21D;52805;51.074;5.842;2022-12-18T03:36:54;-4.02;73.07
66035;HTU21D;52805;51.074;5.842;2022-12-18T03:39:23;-4.04;73.15
66035;HTU21D;52805;51.074;5.842;2022-12-18T03:47:39;-3.99;73.06
66035;HTU21D;52805;51.074;5.842;2022-12-18T03:52:51;-3.99;73.26
66035;HTU21D;52805;51.074;5.842;2022-12-18T03:55:22;-3.96;73.22
66035;HTU21D;52805;51.074;5.842;2022-12-18T03:57:56;-3.96;73.22
66035;HTU21D;52805;51.074;5.842;2022-12-18T04:00:24;-3.95;73.24
66035;HTU21D;52805;51.074;5.842;2022-12-18T04:03:01;-3.94;73.28
66035;HTU21D;52805;51.074;5.842;2022-12-18T04:05:38;-3.91;73.38
66035;HTU21D;52805;51.074;5.842;2022-12-18T04:08:07;-3.90;73.48
66035;HTU21D;52805;51.074;5.842;2022-12-18T04:10:36;-3.89;73.58
66035;HTU21D;52805;51.074;5.842;2022-12-18T04:13:02;-3.85;73.63
66035;HTU21D;52805;51.074;5.842;2022-12-18T04:15:28;-3.84;73.67
66035;HTU21D;52805;51.074;5.842;2022-12-18T04:18:16;-3.85;73.68
66035;HTU21D;52805;51.074;5.842;2022-12-18T04:20:44;-3.83;73.78
66035;HTU21D;52805;51.074;5.842;2022-12-18T04:23:11;-3.80;73.73
66035;HTU21D;52805;51.074;5.842;2022-12-18T04:25:37;-3.79;73.73
66035;HTU21D;52805;51.074;5.842;2022-12-18T04:28:06;-3.77;73.71
66035;HTU21D;52805;51.074;5.842;2022-12-18T04:30:33;-3.76;73.77
66035;HTU21D;52805;51.074;5.842;2022-12-18T04:32:59;-3.75;73.81
66035;HTU21D;52805;51.074;5.842;2022-12-18T04:35:26;-3.72;73.90
66035;HTU21D;52805;51.074;5.842;2022-12-18T04:37:52;-3.71;74.09
66035;HTU21D;52805;51.074;5.842;2022-12-18T04:40:19;-3.72;74.18
66035;HTU21D;52805;51.074;5.842;2022-12-18T04:42:46;-3.69;74.25
66035;HTU21D;52805;51.074;5.842;2022-12-18T04:45:12;-3.69;74.38
66035;HTU21D;52805;51.074;5.842;2022-12-18T04:47:38;-3.68;74.38
66035;HTU21D;52805;51.074;5.842;2022-12-18T04:50:04;-3.66;74.37
66035;HTU21D;52805;51.074;5.842;2022-12-18T04:52:29;-3.66;74.29
66035;HTU21D;52805;51.074;5.842;2022-12-18T04:54:56;-3.66;74.26
66035;HTU21D;52805;51.074;5.842;2022-12-18T04:57:21;-3.67;74.25
66035;HTU21D;52805;51.074;5.842;2022-12-18T04:59:47;-3.69;74.30
66035;HTU21D;52805;51.074;5.842;2022-12-18T05:02:13;-3.71;74.42
66035;HTU21D;52805;51.074;5.842;2022-12-18T05:04:38;-3.71;74.47
66035;HTU21D;52805;51.074;5.842;2022-12-18T05:07:04;-3.71;74.46
66035;HTU21D;52805;51.074;5.842;2022-12-18T05:09:30;-3.70;74.43
66035;HTU21D;52805;51.074;5.842;2022-12-18T05:11:55;-3.69;74.44
66035;HTU21D;52805;51.074;5.842;2022-12-18T05:14:21;-3.70;74.38
66035;HTU21D;52805;51.074;5.842;2022-12-18T05:16:47;-3.71;74.25
66035;HTU21D;52805;51.074;5.842;2022-12-18T05:19:12;-3.74;74.21
66035;HTU21D;52805;51.074;5.842;2022-12-18T05:21:38;-3.74;74.09
66035;HTU21D;52805;51.074;5.842;2022-12-18T05:24:04;-3.76;74.07
66035;HTU21D;52805;51.074;5.842;2022-12-18T05:26:32;-3.77;74.16
66035;HTU21D;52805;51.074;5.842;2022-12-18T05:28:58;-3.78;74.23
66035;HTU21D;52805;51.074;5.842;2022-12-18T05:31:26;-3.78;74.32
66035;HTU21D;52805;51.074;5.842;2022-12-18T05:34:16;-3.77;74.22
66035;HTU21D;52805;51.074;5.842;2022-12-18T05:36:42;-3.78;74.20
66035;HTU21D;52805;51.074;5.842;2022-12-18T05:39:08;-3.76;74.16
66035;HTU21D;52805;51.074;5.842;2022-12-18T05:41:41;-3.74;74.08
66035;HTU21D;52805;51.074;5.842;2022-12-18T05:44:07;-3.74;73.89
66035;HTU21D;52805;51.074;5.842;2022-12-18T05:46:32;-3.76;73.78
66035;HTU21D;52805;51.074;5.842;2022-12-18T05:49:01;-3.78;73.78
66035;HTU21D;52805;51.074;5.842;2022-12-18T05:51:27;-3.77;73.84
66035;HTU21D;52805;51.074;5.842;2022-12-18T05:53:53;-3.77;73.90
66035;HTU21D;52805;51.074;5.842;2022-12-18T05:56:21;-3.74;74.01
66035;HTU21D;52805;51.074;5.842;2022-12-18T05:58:51;-3.72;74.01
66035;HTU21D;52805;51.074;5.842;2022-12-18T06:01:21;-3.72;74.05
66035;HTU21D;52805;51.074;5.842;2022-12-18T06:03:47;-3.74;74.12
66035;HTU21D;52805;51.074;5.842;2022-12-18T06:06:19;-3.76;74.15
66035;HTU21D;52805;51.074;5.842;2022-12-18T06:08:46;-3.76;74.09
66035;HTU21D;52805;51.074;5.842;2022-12-18T06:11:11;-3.78;74.12
66035;HTU21D;52805;51.074;5.842;2022-12-18T06:13:38;-3.80;74.04
66035;HTU21D;52805;51.074;5.842;2022-12-18T06:16:07;-3.80;74.00
66035;HTU21D;52805;51.074;5.842;2022-12-18T06:18:34;-3.84;73.99
66035;HTU21D;52805;51.074;5.842;2022-12-18T06:21:02;-3.84;73.99
66035;HTU21D;52805;51.074;5.842;2022-12-18T06:23:28;-3.85;73.99
66035;HTU21D;52805;51.074;5.842;2022-12-18T06:25:54;-3.86;74.00
66035;HTU21D;52805;51.074;5.842;2022-12-18T06:28:20;-3.90;74.06
66035;HTU21D;52805;51.074;5.842;2022-12-18T06:30:47;-3.90;74.02
66035;HTU21D;52805;51.074;5.842;2022-12-18T06:33:14;-3.93;74.11
66035;HTU21D;52805;51.074;5.842;2022-12-18T06:35:40;-3.93;74.09
66035;HTU21D;52805;51.074;5.842;2022-12-18T06:38:06;-3.94;74.09
66035;HTU21D;52805;51.074;5.842;2022-12-18T06:40:33;-3.94;73.83
66035;HTU21D;52805;51.074;5.842;2022-12-18T06:42:58;-3.96;73.73
66035;HTU21D;52805;51.074;5.842;2022-12-18T06:45:24;-3.96;73.76
66035;HTU21D;52805;51.074;5.842;2022-12-18T06:47:50;-3.97;73.77
66035;HTU21D;52805;51.074;5.842;2022-12-18T06:50:16;-4.00;73.89
66035;HTU21D;52805;51.074;5.842;2022-12-18T06:52:42;-4.01;73.97
66035;HTU21D;52805;51.074;5.842;2022-12-18T06:55:10;-4.00;74.01
66035;HTU21D;52805;51.074;5.842;2022-12-18T06:57:37;-4.00;74.12
66035;HTU21D;52805;51.074;5.842;2022-12-18T07:00:05;-3.97;74.43
66035;HTU21D;52805;51.074;5.842;2022-12-18T07:02:31;-3.94;74.56
66035;HTU21D;52805;51.074;5.842;2022-12-18T07:04:57;-3.93;74.66
66035;HTU21D;52805;51.074;5.842;2022-12-18T07:07:23;-3.87;74.75
66035;HTU21D;52805;51.074;5.842;2022-12-18T07:09:51;-3.83;74.76
66035;HTU21D;52805;51.074;5.842;2022-12-18T07:12:17;-3.80;74.80
66035;HTU21D;52805;51.074;5.842;2022-12-18T07:14:43;-3.75;74.80
66035;HTU21D;52805;51.074;5.842;2022-12-18T07:17:09;-3.70;75.02
66035;HTU21D;52805;51.074;5.842;2022-12-18T07:19:35;-3.64;75.05
66035;HTU21D;52805;51.074;5.842;2022-12-18T07:22:00;-3.63;75.08
66035;HTU21D;52805;51.074;5.842;2022-12-18T07:24:27;-3.57;75.10
66035;HTU21D;52805;51.074;5.842;2022-12-18T07:26:53;-3.55;75.22
66035;HTU21D;52805;51.074;5.842;2022-12-18T07:29:18;-3.54;75.18
66035;HTU21D;52805;51.074;5.842;2022-12-18T07:31:44;-3.52;75.28
66035;HTU21D;52805;51.074;5.842;2022-12-18T07:34:11;-3.47;75.23
66035;HTU21D;52805;51.074;5.842;2022-12-18T07:36:37;-3.47;75.21
66035;HTU21D;52805;51.074;5.842;2022-12-18T07:39:03;-3.43;75.19
66035;HTU21D;52805;51.074;5.842;2022-12-18T07:41:28;-3.40;75.16
66035;HTU21D;52805;51.074;5.842;2022-12-18T07:43:54;-3.41;75.26
66035;HTU21D;52805;51.074;5.842;2022-12-18T07:46:19;-3.38;75.34
66035;HTU21D;52805;51.074;5.842;2022-12-18T07:48:45;-3.37;75.36
66035;HTU21D;52805;51.074;5.842;2022-12-18T07:51:11;-3.34;75.44
66035;HTU21D;52805;51.074;5.842;2022-12-18T07:53:37;-3.31;75.46
66035;HTU21D;52805;51.074;5.842;2022-12-18T07:56:07;-3.28;75.50
66035;HTU21D;52805;51.074;5.842;2022-12-18T07:58:34;-3.24;75.47
66035;HTU21D;52805;51.074;5.842;2022-12-18T08:01:07;-3.19;75.47
66035;HTU21D;52805;51.074;5.842;2022-12-18T08:03:34;-3.13;75.43
66035;HTU21D;52805;51.074;5.842;2022-12-18T08:06:05;-3.08;75.35
66035;HTU21D;52805;51.074;5.842;2022-12-18T08:08:32;-3.01;75.27
66035;HTU21D;52805;51.074;5.842;2022-12-18T08:10:59;-2.98;75.22
66035;HTU21D;52805;51.074;5.842;2022-12-18T08:13:25;-2.97;75.23
66035;HTU21D;52805;51.074;5.842;2022-12-18T08:16:04;-2.91;75.18
66035;HTU21D;52805;51.074;5.842;2022-12-18T08:18:32;-2.87;75.10
66035;HTU21D;52805;51.074;5.842;2022-12-18T08:21:09;-2.83;75.07
66035;HTU21D;52805;51.074;5.842;2022-12-18T08:23:35;-2.78;75.05
66035;HTU21D;52805;51.074;5.842;2022-12-18T08:26:01;-2.75;75.02
66035;HTU21D;52805;51.074;5.842;2022-12-18T08:28:27;-2.72;74.99
66035;HTU21D;52805;51.074;5.842;2022-12-18T08:30:52;-2.67;75.02
66035;HTU21D;52805;51.074;5.842;2022-12-18T08:33:18;-2.63;75.02
66035;HTU21D;52805;51.074;5.842;2022-12-18T08:35:44;-2.59;75.01
66035;HTU21D;52805;51.074;5.842;2022-12-18T08:38:09;-2.50;74.92
66035;HTU21D;52805;51.074;5.842;2022-12-18T08:40:35;-2.44;74.91
66035;HTU21D;52805;51.074;5.842;2022-12-18T08:43:00;-2.38;74.97
66035;HTU21D;52805;51.074;5.842;2022-12-18T08:45:45;-2.31;74.99
66035;HTU21D;52805;51.074;5.842;2022-12-18T08:48:10;-2.26;74.97
66035;HTU21D;52805;51.074;5.842;2022-12-18T08:50:36;-2.21;74.92
66035;HTU21D;52805;51.074;5.842;2022-12-18T08:53:02;-2.16;74.86
66035;HTU21D;52805;51.074;5.842;2022-12-18T08:55:28;-2.07;74.80
66035;HTU21D;52805;51.074;5.842;2022-12-18T08:57:53;-2.02;74.73
66035;HTU21D;52805;51.074;5.842;2022-12-18T09:00:19;-1.97;74.54
66035;HTU21D;52805;51.074;5.842;2022-12-18T09:02:45;-1.88;74.57
66035;HTU21D;52805;51.074;5.842;2022-12-18T09:05:11;-1.83;74.57
66035;HTU21D;52805;51.074;5.842;2022-12-18T09:07:37;-1.75;74.57
66035;HTU21D;52805;51.074;5.842;2022-12-18T09:10:03;-1.65;74.60
66035;HTU21D;52805;51.074;5.842;2022-12-18T09:12:29;-1.60;74.47
66035;HTU21D;52805;51.074;5.842;2022-12-18T09:14:54;-1.52;74.42
66035;HTU21D;52805;51.074;5.842;2022-12-18T09:17:21;-1.46;74.34
66035;HTU21D;52805;51.074;5.842;2022-12-18T09:19:47;-1.40;74.38
66035;HTU21D;52805;51.074;5.842;2022-12-18T09:22:13;-1.35;74.33
66035;HTU21D;52805;51.074;5.842;2022-12-18T09:24:39;-1.31;74.35
66035;HTU21D;52805;51.074;5.842;2022-12-18T09:27:04;-1.26;74.33
66035;HTU21D;52805;51.074;5.842;2022-12-18T09:29:30;-1.19;74.12
66035;HTU21D;52805;51.074;5.842;2022-12-18T09:31:56;-1.14;73.91
66035;HTU21D;52805;51.074;5.842;2022-12-18T09:34:21;-1.09;73.90
66035;HTU21D;52805;51.074;5.842;2022-12-18T09:36:47;-1.05;73.80
66035;HTU21D;52805;51.074;5.842;2022-12-18T09:39:13;-1.00;73.86
66035;HTU21D;52805;51.074;5.842;2022-12-18T09:44:18;-0.85;74.09
66035;HTU21D;52805;51.074;5.842;2022-12-18T09:46:55;-0.79;74.05
66035;HTU21D;52805;51.074;5.842;2022-12-18T09:49:29;-0.71;74.04
66035;HTU21D;52805;51.074;5.842;2022-12-18T09:52:05;-0.61;74.03
66035;HTU21D;52805;51.074;5.842;2022-12-18T09:54:49;-0.53;73.90
66035;HTU21D;52805;51.074;5.842;2022-12-18T09:57:23;-0.44;73.78
66035;HTU21D;52805;51.074;5.842;2022-12-18T10:00:02;-0.37;73.66
66035;HTU21D;52805;51.074;5.842;2022-12-18T10:02:37;-0.29;73.53
66035;HTU21D;52805;51.074;5.842;2022-12-18T10:05:14;-0.21;73.46
66035;HTU21D;52805;51.074;5.842;2022-12-18T10:15:59;-0.00;73.03
66035;HTU21D;52805;51.074;5.842;2022-12-18T10:21:05;0.05;73.02
66035;HTU21D;52805;51.074;5.842;2022-12-18T10:26:31;0.18;72.94
66035;HTU21D;52805;51.074;5.842;2022-12-18T10:28:58;0.21;72.62
66035;HTU21D;52805;51.074;5.842;2022-12-18T10:31:24;0.24;72.74
66035;HTU21D;52805;51.074;5.842;2022-12-18T10:33:53;0.30;72.72
66035;HTU21D;52805;51.074;5.842;2022-12-18T10:36:20;0.33;72.74
66035;HTU21D;52805;51.074;5.842;2022-12-18T10:38:45;0.38;72.75
66035;HTU21D;52805;51.074;5.842;2022-12-18T10:43:45;0.48;72.46
66035;HTU21D;52805;51.074;5.842;2022-12-18T10:46:12;0.53;72.43
66035;HTU21D;52805;51.074;5.842;2022-12-18T10:48:53;0.57;72.35
66035;HTU21D;52805;51.074;5.842;2022-12-18T10:51:29;0.61;72.27
66035;HTU21D;52805;51.074;5.842;2022-12-18T10:54:03;0.62;72.41
66035;HTU21D;52805;51.074;5.842;2022-12-18T10:56:33;0.67;72.43
66035;HTU21D;52805;51.074;5.842;2022-12-18T11:02:36;0.76;72.32
66035;HTU21D;52805;51.074;5.842;2022-12-18T11:05:04;0.81;72.24
66035;HTU21D;52805;51.074;5.842;2022-12-18T11:07:49;0.87;72.19
66035;HTU21D;52805;51.074;5.842;2022-12-18T11:10:17;0.94;72.18
66035;HTU21D;52805;51.074;5.842;2022-12-18T11:12:43;0.97;71.98
66035;HTU21D;52805;51.074;5.842;2022-12-18T11:15:27;1.03;71.96
66035;HTU21D;52805;51.074;5.842;2022-12-18T11:17:55;1.06;71.92
66035;HTU21D;52805;51.074;5.842;2022-12-18T11:20:31;1.11;71.95
66035;HTU21D;52805;51.074;5.842;2022-12-18T11:23:04;1.14;72.00
66035;HTU21D;52805;51.074;5.842;2022-12-18T11:25:32;1.21;71.94
66035;HTU21D;52805;51.074;5.842;2022-12-18T11:28:27;1.26;71.64
66035;HTU21D;52805;51.074;5.842;2022-12-18T11:34:31;1.27;71.48
66035;HTU21D;52805;51.074;5.842;2022-12-18T11:36:44;1.31;71.38
66035;HTU21D;52805;51.074;5.842;2022-12-18T11:42:12;1.34;71.22
66035;HTU21D;52805;51.074;5.842;2022-12-18T11:45:06;1.36;71.25
66035;HTU21D;52805;51.074;5.842;2022-12-18T11:47:56;1.37;71.14
66035;HTU21D;52805;51.074;5.842;2022-12-18T11:52:58;1.41;71.32
66035;HTU21D;52805;51.074;5.842;2022-12-18T11:56:20;1.46;71.31
66035;HTU21D;52805;51.074;5.842;2022-12-18T12:01:55;1.54;71.19
66035;HTU21D;52805;51.074;5.842;2022-12-18T12:07:54;1.62;71.38
66035;HTU21D;52805;51.074;5.842;2022-12-18T12:10:25;1.68;71.33
66035;HTU21D;52805;51.074;5.842;2022-12-18T12:26:57;1.90;70.90
66035;HTU21D;52805;51.074;5.842;2022-12-18T12:29:30;1.96;70.84
66035;HTU21D;52805;51.074;5.842;2022-12-18T12:40:18;2.07;70.68
66035;HTU21D;52805;51.074;5.842;2022-12-18T12:42:52;2.07;70.61
66035;HTU21D;52805;51.074;5.842;2022-12-18T12:48:35;2.10;70.64
66035;HTU21D;52805;51.074;5.842;2022-12-18T12:53:47;2.15;70.70
66035;HTU21D;52805;51.074;5.842;2022-12-18T12:56:16;2.17;70.67
66035;HTU21D;52805;51.074;5.842;2022-12-18T13:07:15;2.31;70.62
66035;HTU21D;52805;51.074;5.842;2022-12-18T13:10:12;2.34;70.54
66035;HTU21D;52805;51.074;5.842;2022-12-18T13:18:24;2.41;70.64
66035;HTU21D;52805;51.074;5.842;2022-12-18T13:21:03;2.45;70.42
66035;HTU21D;52805;51.074;5.842;2022-12-18T13:23:36;2.45;70.41
66035;HTU21D;52805;51.074;5.842;2022-12-18T13:31:02;2.49;70.07
66035;HTU21D;52805;51.074;5.842;2022-12-18T13:36:01;2.47;70.03
66035;HTU21D;52805;51.074;5.842;2022-12-18T13:46:21;2.50;69.78
66035;HTU21D;52805;51.074;5.842;2022-12-18T13:48:52;2.49;69.79
66035;HTU21D;52805;51.074;5.842;2022-12-18T13:51:20;2.50;69.80
66035;HTU21D;52805;51.074;5.842;2022-12-18T13:54:23;2.51;69.68
66035;HTU21D;52805;51.074;5.842;2022-12-18T13:56:50;2.49;69.66
66035;HTU21D;52805;51.074;5.842;2022-12-18T13:59:24;2.51;69.49
66035;HTU21D;52805;51.074;5.842;2022-12-18T14:01:58;2.46;69.39
66035;HTU21D;52805;51.074;5.842;2022-12-18T14:04:29;2.49;69.53
66035;HTU21D;52805;51.074;5.842;2022-12-18T14:07:25;2.44;69.44
66035;HTU21D;52805;51.074;5.842;2022-12-18T14:09:52;2.45;69.33
66035;HTU21D;52805;51.074;5.842;2022-12-18T14:12:24;2.44;69.39
66035;HTU21D;52805;51.074;5.842;2022-12-18T14:17:58;2.45;69.26
66035;HTU21D;52805;51.074;5.842;2022-12-18T14:20:29;2.47;69.00
66035;HTU21D;52805;51.074;5.842;2022-12-18T14:22:57;2.44;69.10
66035;HTU21D;52805;51.074;5.842;2022-12-18T14:25:27;2.43;69.22
66035;HTU21D;52805;51.074;5.842;2022-12-18T14:30:41;2.41;68.98
66035;HTU21D;52805;51.074;5.842;2022-12-18T14:33:20;2.40;68.93
66035;HTU21D;52805;51.074;5.842;2022-12-18T14:35:55;2.37;68.95
66035;HTU21D;52805;51.074;5.842;2022-12-18T14:38:31;2.35;69.04
66035;HTU21D;52805;51.074;5.842;2022-12-18T14:41:31;2.37;69.13
66035;HTU21D;52805;51.074;5.842;2022-12-18T14:43:52;2.37;69.08
66035;HTU21D;52805;51.074;5.842;2022-12-18T14:46:37;2.35;69.16
66035;HTU21D;52805;51.074;5.842;2022-12-18T14:51:52;2.34;69.46
66035;HTU21D;52805;51.074;5.842;2022-12-18T14:54:20;2.32;69.60
66035;HTU21D;52805;51.074;5.842;2022-12-18T14:56:55;2.32;69.71
66035;HTU21D;52805;51.074;5.842;2022-12-18T14:59:25;2.31;69.75
66035;HTU21D;52805;51.074;5.842;2022-12-18T15:04:40;2.30;69.76
66035;HTU21D;52805;51.074;5.842;2022-12-18T15:09:41;2.30;69.81
66035;HTU21D;52805;51.074;5.842;2022-12-18T15:12:35;2.30;69.87
66035;HTU21D;52805;51.074;5.842;2022-12-18T15:15:03;2.29;69.88
66035;HTU21D;52805;51.074;5.842;2022-12-18T15:17:29;2.28;69.97
66035;HTU21D;52805;51.074;5.842;2022-12-18T15:20:01;2.27;70.00
66035;HTU21D;52805;51.074;5.842;2022-12-18T15:22:30;2.27;70.04
66035;HTU21D;52805;51.074;5.842;2022-12-18T15:24:59;2.26;70.10
66035;HTU21D;52805;51.074;5.842;2022-12-18T15:27:33;2.27;70.03
66035;HTU21D;52805;51.074;5.842;2022-12-18T15:32:36;2.23;70.23
66035;HTU21D;52805;51.074;5.842;2022-12-18T15:35:23;2.21;70.27
66035;HTU21D;52805;51.074;5.842;2022-12-18T15:37:51;2.19;70.40
66035;HTU21D;52805;51.074;5.842;2022-12-18T15:40:23;2.22;70.23
66035;HTU21D;52805;51.074;5.842;2022-12-18T15:42:53;2.22;70.28
66035;HTU21D;52805;51.074;5.842;2022-12-18T15:45:38;2.19;70.26
66035;HTU21D;52805;51.074;5.842;2022-12-18T15:48:21;2.21;70.23
66035;HTU21D;52805;51.074;5.842;2022-12-18T15:50:48;2.19;70.26
66035;HTU21D;52805;51.074;5.842;2022-12-18T15:53:14;2.19;70.28
66035;HTU21D;52805;51.074;5.842;2022-12-18T15:55:39;2.19;70.38
66035;HTU21D;52805;51.074;5.842;2022-12-18T15:58:23;2.20;70.26
66035;HTU21D;52805;51.074;5.842;2022-12-18T16:00:49;2.22;70.35
66035;HTU21D;52805;51.074;5.842;2022-12-18T16:03:15;2.23;70.32
66035;HTU21D;52805;51.074;5.842;2022-12-18T16:05:40;2.22;70.48
66035;HTU21D;52805;51.074;5.842;2022-12-18T16:08:06;2.25;70.46
66035;HTU21D;52805;51.074;5.842;2022-12-18T16:10:32;2.26;70.49
66035;HTU21D;52805;51.074;5.842;2022-12-18T16:12:57;2.26;70.56
66035;HTU21D;52805;51.074;5.842;2022-12-18T16:15:23;2.27;70.62
66035;HTU21D;52805;51.074;5.842;2022-12-18T16:17:49;2.31;70.56
66035;HTU21D;52805;51.074;5.842;2022-12-18T16:20:17;2.31;70.54
66035;HTU21D;52805;51.074;5.842;2022-12-18T16:22:45;2.29;70.62
66035;HTU21D;52805;51.074;5.842;2022-12-18T16:25:20;2.30;70.65
66035;HTU21D;52805;51.074;5.842;2022-12-18T16:27:48;2.31;70.73
66035;HTU21D;52805;51.074;5.842;2022-12-18T16:30:20;2.32;70.72
66035;HTU21D;52805;51.074;5.842;2022-12-18T16:32:46;2.31;70.81
66035;HTU21D;52805;51.074;5.842;2022-12-18T16:35:14;2.32;70.90
66035;HTU21D;52805;51.074;5.842;2022-12-18T16:37:41;2.32;71.03
66035;HTU21D;52805;51.074;5.842;2022-12-18T16:40:09;2.34;71.06
66035;HTU21D;52805;51.074;5.842;2022-12-18T16:42:36;2.36;71.07
66035;HTU21D;52805;51.074;5.842;2022-12-18T16:45:03;2.38;71.03
66035;HTU21D;52805;51.074;5.842;2022-12-18T16:47:29;2.37;70.93
66035;HTU21D;52805;51.074;5.842;2022-12-18T16:49:55;2.37;70.86
66035;HTU21D;52805;51.074;5.842;2022-12-18T16:52:21;2.37;70.74
66035;HTU21D;52805;51.074;5.842;2022-12-18T16:54:47;2.31;70.89
66035;HTU21D;52805;51.074;5.842;2022-12-18T16:57:15;2.31;70.90
66035;HTU21D;52805;51.074;5.842;2022-12-18T16:59:41;2.29;71.03
66035;HTU21D;52805;51.074;5.842;2022-12-18T17:02:16;2.28;71.21
66035;HTU21D;52805;51.074;5.842;2022-12-18T17:04:42;2.31;71.25
66035;HTU21D;52805;51.074;5.842;2022-12-18T17:07:09;2.31;71.30
66035;HTU21D;52805;51.074;5.842;2022-12-18T17:09:36;2.35;71.35
66035;HTU21D;52805;51.074;5.842;2022-12-18T17:12:02;2.34;71.29
66035;HTU21D;52805;51.074;5.842;2022-12-18T17:14:28;2.37;71.06
66035;HTU21D;52805;51.074;5.842;2022-12-18T17:16:54;2.35;70.84
66035;HTU21D;52805;51.074;5.842;2022-12-18T17:19:23;2.34;70.90
66035;HTU21D;52805;51.074;5.842;2022-12-18T17:21:49;2.32;71.03
66035;HTU21D;52805;51.074;5.842;2022-12-18T17:24:16;2.34;71.04
66035;HTU21D;52805;51.074;5.842;2022-12-18T17:26:43;2.34;71.09
66035;HTU21D;52805;51.074;5.842;2022-12-18T17:29:14;2.32;71.14
66035;HTU21D;52805;51.074;5.842;2022-12-18T17:31:40;2.32;71.06
66035;HTU21D;52805;51.074;5.842;2022-12-18T17:34:08;2.35;71.06
66035;HTU21D;52805;51.074;5.842;2022-12-18T17:36:34;2.32;70.98
66035;HTU21D;52805;51.074;5.842;2022-12-18T17:39:01;2.34;71.05
66035;HTU21D;52805;51.074;5.842;2022-12-18T17:41:29;2.34;71.10
66035;HTU21D;52805;51.074;5.842;2022-12-18T17:44:03;2.30;71.21
66035;HTU21D;52805;51.074;5.842;2022-12-18T17:46:31;2.32;71.22
66035;HTU21D;52805;51.074;5.842;2022-12-18T17:48:59;2.30;71.13
66035;HTU21D;52805;51.074;5.842;2022-12-18T17:51:26;2.29;71.20
66035;HTU21D;52805;51.074;5.842;2022-12-18T17:53:52;2.28;71.26
66035;HTU21D;52805;51.074;5.842;2022-12-18T17:56:21;2.27;71.19
66035;HTU21D;52805;51.074;5.842;2022-12-18T17:58:48;2.27;71.26
66035;HTU21D;52805;51.074;5.842;2022-12-18T18:01:17;2.28;71.32
66035;HTU21D;52805;51.074;5.842;2022-12-18T18:03:43;2.28;71.43
66035;HTU21D;52805;51.074;5.842;2022-12-18T18:06:09;2.29;71.43